Time;durP1;ratioP1;P1;durP2;ratioP2;P2;SDS_P1;SDS_P2;PMS_P1;PMS_P2;Temp;Humidity;BMP_temperature;BMP_pressure;BME280_temperature;BME280_humidity;BME280_pressure;Samples;Min_cycle;Max_cycle;Signal;HPM_P1;HPM_P2
2022/09/25 00:01:24;;;;;;;63.20;28.80;;;12.60;22.50;;;;;;5043694;28;20730;-45
2022/09/25 00:03:50;;;;;;;60.23;26.60;;;12.60;21.30;;;;;;5050890;28;21455;-45
2022/09/25 00:06:18;;;;;;;67.77;27.33;;;12.60;19.70;;;;;;5048442;28;20574;-45
2022/09/25 00:08:45;;;;;;;56.23;26.57;;;12.60;20.50;;;;;;5045116;28;20660;-46
2022/09/25 00:11:17;;;;;;;61.47;26.77;;;12.60;20.90;;;;;;5049761;28;20471;-55
2022/09/25 00:13:44;;;;;;;64.30;27.97;;;12.60;21.30;;;;;;5052816;28;20511;-45
2022/09/25 00:16:14;;;;;;;65.70;28.17;;;12.60;21.10;;;;;;5050994;28;20567;-46
2022/09/25 00:21:28;;;;;;;63.57;26.50;;;12.60;20.10;;;;;;5046424;28;20444;-45
2022/09/25 00:23:54;;;;;;;62.33;26.47;;;12.60;20.50;;;;;;5034329;28;20440;-46
2022/09/25 00:26:19;;;;;;;65.23;26.30;;;12.60;20.80;;;;;;5033358;28;20458;-46
2022/09/25 00:28:45;;;;;;;58.90;25.70;;;12.60;22.30;;;;;;5035072;28;20281;-45
2022/09/25 00:31:17;;;;;;;63.73;25.87;;;12.60;23.70;;;;;;5033435;28;20698;-46
2022/09/25 00:33:43;;;;;;;60.10;25.30;;;12.60;25.10;;;;;;5043417;28;20551;-46
2022/09/25 00:36:09;;;;;;;59.83;26.13;;;12.60;25.90;;;;;;5052622;28;20475;-46
2022/09/25 00:38:36;;;;;;;54.07;24.37;;;12.60;25.10;;;;;;5030990;28;20960;-46
2022/09/25 00:41:04;;;;;;;57.23;25.83;;;12.60;22.70;;;;;;5030295;28;20434;-45
2022/09/25 00:43:39;;;;;;;58.70;26.63;;;12.60;20.90;;;;;;5030456;28;20502;-45
2022/09/25 00:46:17;;;;;;;52.77;23.63;;;12.50;18.10;;;;;;5028394;28;20690;-45
2022/09/25 00:48:52;;;;;;;67.60;26.30;;;12.50;18.80;;;;;;5028707;28;20452;-45
2022/09/25 00:51:27;;;;;;;61.07;25.13;;;12.50;19.90;;;;;;5035767;28;20447;-45
2022/09/25 00:53:52;;;;;;;58.40;25.53;;;12.50;19.20;;;;;;5030697;28;20527;-45
2022/09/25 00:56:18;;;;;;;55.17;25.23;;;12.50;19.00;;;;;;5028433;28;20463;-46
2022/09/25 00:58:44;;;;;;;58.90;26.50;;;12.50;19.00;;;;;;5028898;28;20797;-45
2022/09/25 01:01:10;;;;;;;60.10;27.53;;;12.50;19.10;;;;;;5030618;28;20437;-45
2022/09/25 01:03:38;;;;;;;56.43;24.70;;;12.50;19.20;;;;;;5029609;28;20191;-46
2022/09/25 01:06:05;;;;;;;59.60;26.20;;;12.50;19.20;;;;;;5029901;28;20264;-45
2022/09/25 01:08:32;;;;;;;58.83;25.17;;;12.50;20.10;;;;;;5031982;28;20433;-46
2022/09/25 01:10:57;;;;;;;52.37;24.13;;;12.50;21.20;;;;;;5030436;28;20969;-45
2022/09/25 01:13:23;;;;;;;51.27;24.57;;;12.50;21.80;;;;;;5045934;28;20468;-46
2022/09/25 01:16:17;;;;;;;57.10;23.37;;;12.50;22.40;;;;;;5051153;28;20220;-45
2022/09/25 01:19:10;;;;;;;54.40;25.07;;;12.50;22.60;;;;;;5045051;28;20266;-45
2022/09/25 01:22:03;;;;;;;59.00;25.50;;;12.40;22.00;;;;;;5038112;28;20441;-46
2022/09/25 01:24:36;;;;;;;57.50;25.40;;;12.40;22.30;;;;;;5032414;28;20454;-45
2022/09/25 01:27:33;;;;;;;61.80;26.10;;;12.40;24.30;;;;;;5041080;28;20450;-45
2022/09/25 01:29:58;;;;;;;63.73;25.87;;;12.40;26.10;;;;;;5050701;28;20940;-45
2022/09/25 01:32:57;;;;;;;67.63;26.77;;;12.40;26.90;;;;;;5037778;28;20480;-45
2022/09/25 01:35:28;;;;;;;70.17;26.53;;;12.40;27.60;;;;;;5032868;28;20213;-46
2022/09/25 01:38:39;;;;;;;71.63;27.73;;;12.40;26.90;;;;;;5031869;28;20436;-45
2022/09/25 01:41:44;;;;;;;71.63;27.37;;;12.40;26.50;;;;;;5021027;28;20559;-45
2022/09/25 01:44:32;;;;;;;72.23;26.57;;;12.40;26.90;;;;;;5031323;28;20449;-46
2022/09/25 01:47:09;;;;;;;64.87;27.80;;;12.40;27.50;;;;;;5034839;28;20958;-45
2022/09/25 01:49:41;;;;;;;64.10;26.70;;;12.40;27.40;;;;;;5044214;28;20444;-45
2022/09/25 01:52:13;;;;;;;76.10;29.60;;;12.40;28.20;;;;;;5040021;28;20453;-46
2022/09/25 01:54:44;;;;;;;68.73;27.60;;;12.40;29.20;;;;;;5032169;28;20839;-45
2022/09/25 01:57:33;;;;;;;66.53;26.67;;;12.40;29.00;;;;;;5031511;28;20438;-45
2022/09/25 02:00:11;;;;;;;87.50;27.90;;;12.40;29.30;;;;;;5044133;28;20739;-46
2022/09/25 02:02:45;;;;;;;73.20;26.27;;;12.50;30.50;;;;;;5049489;28;21157;-45
2022/09/25 02:05:18;;;;;;;92.60;26.57;;;12.50;31.90;;;;;;5033375;28;20598;-46
2022/09/25 02:07:49;;;;;;;61.03;24.70;;;12.50;33.20;;;;;;5042899;28;20445;-45
2022/09/25 02:10:21;;;;;;;82.03;28.17;;;12.50;34.50;;;;;;5045026;28;20446;-46
2022/09/25 02:12:51;;;;;;;69.70;27.43;;;12.50;35.10;;;;;;5046161;28;20929;-45
2022/09/25 02:15:25;;;;;;;65.57;25.30;;;12.50;33.10;;;;;;5039745;28;20464;-46
2022/09/25 02:20:41;;;;;;;54.33;24.87;;;12.40;28.10;;;;;;5046729;28;20451;-45
2022/09/25 02:23:28;;;;;;;58.30;24.60;;;12.40;29.30;;;;;;5036251;28;20443;-46
2022/09/25 02:26:06;;;;;;;61.70;23.43;;;12.40;32.00;;;;;;5046468;28;20489;-45
2022/09/25 02:28:32;;;;;;;55.77;23.57;;;12.40;33.00;;;;;;5031534;28;20445;-45
2022/09/25 02:31:00;;;;;;;61.57;24.70;;;12.50;30.80;;;;;;5032072;28;21260;-45
2022/09/25 02:33:26;;;;;;;64.70;24.90;;;12.40;30.20;;;;;;5041197;28;20187;-45
2022/09/25 02:35:52;;;;;;;64.30;25.73;;;12.40;30.60;;;;;;5031157;28;20492;-45
2022/09/25 02:38:19;;;;;;;62.17;23.20;;;12.40;31.00;;;;;;5043733;28;20241;-45
2022/09/25 02:41:14;;;;;;;69.80;23.97;;;12.40;34.20;;;;;;5042159;28;20460;-46
2022/09/25 02:44:17;;;;;;;105.40;25.50;;;12.40;33.20;;;;;;5042007;28;20450;-45
2022/09/25 02:47:21;;;;;;;73.33;23.70;;;12.40;30.60;;;;;;5040685;28;20505;-49
2022/09/25 02:49:50;;;;;;;70.30;23.83;;;12.40;29.90;;;;;;5043321;28;20444;-46
2022/09/25 02:52:36;;;;;;;65.67;24.50;;;12.40;30.40;;;;;;5044469;28;20445;-45
2022/09/25 02:55:05;;;;;;;64.03;23.67;;;12.40;32.00;;;;;;5042964;28;20477;-45
2022/09/25 02:57:34;;;;;;;76.30;25.57;;;12.40;33.60;;;;;;5048782;28;20444;-45
2022/09/25 03:00:06;;;;;;;70.30;24.20;;;12.40;35.20;;;;;;5037568;28;20447;-45
2022/09/25 03:02:33;;;;;;;78.60;24.73;;;12.40;36.30;;;;;;5041259;28;20441;-46
2022/09/25 03:05:01;;;;;;;100.30;25.97;;;12.40;37.50;;;;;;5044314;28;20514;-45
2022/09/25 03:07:27;;;;;;;81.07;25.57;;;12.40;37.60;;;;;;5041376;28;20930;-45
2022/09/25 03:09:54;;;;;;;70.67;24.63;;;12.40;36.60;;;;;;5037927;28;20448;-45
2022/09/25 03:12:20;;;;;;;67.20;24.57;;;12.40;36.30;;;;;;5043617;28;20456;-45
2022/09/25 03:14:46;;;;;;;69.73;24.10;;;12.40;37.00;;;;;;5043369;28;20961;-45
2022/09/25 03:17:14;;;;;;;59.83;22.57;;;12.40;38.10;;;;;;5044337;28;20699;-45
2022/09/25 03:19:40;;;;;;;91.80;24.93;;;12.40;38.90;;;;;;5048648;28;20412;-45
2022/09/25 03:22:05;;;;;;;59.70;23.47;;;12.50;39.60;;;;;;5045363;28;20500;-45
2022/09/25 03:24:31;;;;;;;76.40;24.80;;;12.40;38.90;;;;;;5046046;28;20198;-45
2022/09/25 03:26:57;;;;;;;69.93;24.43;;;12.40;39.80;;;;;;5040550;28;20206;-46
2022/09/25 03:29:23;;;;;;;103.00;24.87;;;12.40;41.20;;;;;;5043293;28;20210;-46
2022/09/25 03:31:48;;;;;;;70.87;25.60;;;12.40;42.00;;;;;;5046630;28;20216;-45
2022/09/25 03:34:16;;;;;;;83.97;25.63;;;12.40;42.70;;;;;;5038295;28;20703;-45
2022/09/25 03:36:43;;;;;;;76.47;25.93;;;12.40;42.00;;;;;;5047598;28;20682;-45
2022/09/25 03:39:09;;;;;;;78.33;26.50;;;12.40;41.60;;;;;;5043847;28;20436;-46
2022/09/25 03:41:36;;;;;;;79.73;27.17;;;12.40;41.80;;;;;;5032685;28;20496;-46
2022/09/25 03:44:02;;;;;;;83.53;28.20;;;12.40;42.80;;;;;;5045576;28;20598;-45
2022/09/25 03:46:30;;;;;;;80.20;26.43;;;12.40;44.50;;;;;;5045451;28;20988;-45
2022/09/25 03:48:56;;;;;;;80.10;26.50;;;12.50;45.80;;;;;;5040595;28;20447;-45
2022/09/25 03:51:22;;;;;;;67.47;24.23;;;12.40;46.20;;;;;;5053615;28;20432;-45
2022/09/25 03:53:49;;;;;;;74.20;25.10;;;12.50;47.20;;;;;;5047881;28;20455;-45
2022/09/25 03:56:21;;;;;;;88.37;25.63;;;12.50;49.30;;;;;;5051923;28;20468;-45
2022/09/25 03:58:47;;;;;;;81.97;26.00;;;12.50;50.30;;;;;;5042628;28;20523;-45
2022/09/25 04:01:14;;;;;;;75.03;26.70;;;12.50;51.40;;;;;;5047711;28;20515;-46
2022/09/25 04:03:45;;;;;;;67.40;23.60;;;12.50;50.00;;;;;;5048199;28;20440;-45
2022/09/25 04:06:13;;;;;;;80.40;25.77;;;12.50;49.60;;;;;;5041993;28;20447;-45
2022/09/25 04:08:39;;;;;;;74.17;25.67;;;12.50;50.40;;;;;;5044755;28;20437;-45
2022/09/25 04:11:05;;;;;;;66.20;24.33;;;12.50;51.60;;;;;;5044426;28;20951;-45
2022/09/25 04:13:35;;;;;;;64.60;24.87;;;12.50;52.90;;;;;;5049305;28;20197;-46
2022/09/25 04:16:02;;;;;;;83.30;25.80;;;12.50;52.40;;;;;;5042956;28;20293;-45
2022/09/25 04:18:30;;;;;;;62.63;24.10;;;12.50;52.90;;;;;;5041263;28;20432;-45
2022/09/25 04:21:07;;;;;;;62.30;25.03;;;12.50;52.70;;;;;;5049705;28;20435;-45
2022/09/25 04:23:34;;;;;;;66.80;24.57;;;12.50;53.40;;;;;;5046848;28;20504;-46
2022/09/25 04:25:59;;;;;;;62.37;22.93;;;12.50;53.90;;;;;;5048236;28;20569;-45
2022/09/25 04:28:25;;;;;;;66.33;23.53;;;12.50;53.80;;;;;;5051997;28;20482;-45
2022/09/25 04:30:51;;;;;;;61.40;24.33;;;12.50;54.40;;;;;;5052846;28;20189;-45
2022/09/25 04:36:02;;;;;;;58.77;23.50;;;12.50;52.90;;;;;;5039098;28;20217;-45
2022/09/25 04:38:31;;;;;;;59.53;23.27;;;12.50;53.20;;;;;;5045563;28;20433;-46
2022/09/25 04:40:58;;;;;;;54.20;22.80;;;12.50;52.80;;;;;;5047018;28;20524;-45
2022/09/25 04:43:25;;;;;;;64.97;24.10;;;12.50;53.80;;;;;;5045552;28;20498;-45
2022/09/25 04:45:51;;;;;;;51.57;21.10;;;12.50;54.10;;;;;;5045067;28;20847;-46
2022/09/25 04:48:16;;;;;;;51.63;23.43;;;12.50;54.10;;;;;;5043624;28;20437;-45
2022/09/25 04:50:47;;;;;;;52.83;22.03;;;12.50;54.80;;;;;;5051420;28;20202;-46
2022/09/25 04:53:13;;;;;;;59.17;24.17;;;12.50;55.20;;;;;;5049872;28;20190;-46
2022/09/25 04:55:38;;;;;;;61.23;24.93;;;12.50;54.70;;;;;;5042468;28;20487;-46
2022/09/25 04:58:04;;;;;;;59.50;23.70;;;12.50;53.50;;;;;;5049961;28;20190;-45
2022/09/25 05:00:31;;;;;;;55.47;24.17;;;12.50;51.40;;;;;;5043341;28;20224;-46
2022/09/25 05:02:57;;;;;;;54.37;24.77;;;12.40;49.50;;;;;;5046958;28;20567;-45
2022/09/25 05:05:26;;;;;;;65.67;24.87;;;12.40;48.00;;;;;;5043356;28;20437;-45
2022/09/25 05:07:53;;;;;;;57.47;24.57;;;12.40;46.30;;;;;;5050312;28;20444;-46
2022/09/25 05:10:19;;;;;;;57.30;25.17;;;12.40;45.50;;;;;;5048910;28;20425;-45
2022/09/25 05:12:46;;;;;;;68.90;26.97;;;12.40;45.40;;;;;;5046274;28;20457;-46
2022/09/25 05:15:12;;;;;;;58.23;26.17;;;12.40;45.60;;;;;;5048584;28;20845;-45
2022/09/25 05:17:37;;;;;;;54.67;25.17;;;12.40;44.50;;;;;;5052005;28;20424;-45
2022/09/25 05:20:03;;;;;;;51.60;24.80;;;12.40;45.00;;;;;;5051651;28;20186;-45
2022/09/25 05:22:29;;;;;;;63.70;27.57;;;12.40;45.30;;;;;;5047106;28;20202;-45
2022/09/25 05:24:55;;;;;;;57.33;26.80;;;12.40;45.60;;;;;;5047464;28;21095;-45
2022/09/25 05:27:22;;;;;;;48.43;24.70;;;12.40;46.60;;;;;;5037832;28;20190;-45
2022/09/25 05:29:48;;;;;;;56.33;25.93;;;12.40;48.10;;;;;;5050876;28;20183;-45
2022/09/25 05:32:14;;;;;;;59.90;25.23;;;12.40;49.50;;;;;;5046474;28;20486;-46
2022/09/25 05:34:40;;;;;;;52.17;26.00;;;12.40;50.90;;;;;;5044468;28;20533;-45
2022/09/25 05:37:05;;;;;;;52.07;25.80;;;12.40;52.10;;;;;;5037374;28;20433;-45
2022/09/25 05:39:31;;;;;;;56.87;24.97;;;12.40;53.60;;;;;;5050273;28;20194;-45
2022/09/25 05:41:57;;;;;;;59.60;27.20;;;12.40;54.70;;;;;;5044118;28;20186;-46
2022/09/25 05:44:23;;;;;;;75.13;29.43;;;12.50;56.10;;;;;;5046494;28;20526;-46
2022/09/25 05:46:49;;;;;;;59.57;27.60;;;12.50;57.80;;;;;;5044385;28;20215;-45
2022/09/25 05:49:15;;;;;;;71.03;30.30;;;12.50;58.40;;;;;;5045559;28;20933;-46
2022/09/25 05:51:40;;;;;;;62.27;28.73;;;12.50;59.60;;;;;;5046652;28;20198;-46
2022/09/25 05:54:06;;;;;;;60.90;27.67;;;12.50;61.10;;;;;;5042557;28;20187;-46
2022/09/25 05:56:32;;;;;;;64.97;29.93;;;12.50;61.10;;;;;;5045740;28;20693;-46
2022/09/25 05:58:58;;;;;;;64.77;28.73;;;12.50;61.60;;;;;;5047563;28;20429;-45
2022/09/25 06:01:24;;;;;;;72.30;31.00;;;12.60;62.70;;;;;;5040818;28;20194;-45
2022/09/25 06:03:50;;;;;;;68.93;30.27;;;12.50;61.70;;;;;;5040406;28;20195;-46
2022/09/25 06:06:16;;;;;;;58.60;27.90;;;12.60;59.90;;;;;;5044352;28;20443;-46
2022/09/25 06:08:41;;;;;;;71.70;31.33;;;12.60;58.00;;;;;;5049997;28;20194;-46
2022/09/25 06:11:07;;;;;;;61.80;29.33;;;12.60;55.80;;;;;;5043665;28;20225;-46
2022/09/25 06:13:35;;;;;;;63.80;29.90;;;12.60;53.30;;;;;;5048931;28;20209;-45
2022/09/25 06:16:02;;;;;;;68.37;30.70;;;12.60;51.60;;;;;;5049678;28;20694;-45
2022/09/25 06:18:27;;;;;;;76.10;31.50;;;12.60;49.80;;;;;;5045299;28;20459;-46
2022/09/25 06:21:00;;;;;;;81.20;33.17;;;12.70;51.10;;;;;;5039821;28;20473;-45
2022/09/25 06:23:26;;;;;;;79.50;30.77;;;12.70;49.90;;;;;;5035964;28;20588;-46
2022/09/25 06:25:52;;;;;;;74.70;30.57;;;12.70;47.50;;;;;;5045620;28;20491;-45
2022/09/25 06:28:17;;;;;;;66.37;29.47;;;12.70;44.50;;;;;;5044371;28;20449;-46
2022/09/25 06:30:44;;;;;;;75.77;31.30;;;12.70;44.50;;;;;;5045725;28;20190;-45
2022/09/25 06:33:11;;;;;;;77.73;33.07;;;12.80;44.00;;;;;;5047902;28;20652;-45
2022/09/25 06:35:42;;;;;;;65.50;28.50;;;12.80;42.30;;;;;;5043960;28;21400;-46
2022/09/25 06:38:08;;;;;;;63.60;29.30;;;12.80;38.90;;;;;;5047030;28;20440;-45
2022/09/25 06:40:36;;;;;;;69.07;30.03;;;12.80;35.10;;;;;;5047288;28;20439;-46
2022/09/25 06:43:03;;;;;;;58.73;28.67;;;12.80;29.40;;;;;;5044406;28;20528;-46
2022/09/25 06:45:32;;;;;;;61.07;27.90;;;12.80;26.90;;;;;;5048903;28;20468;-45
2022/09/25 06:48:08;;;;;;;56.27;27.23;;;12.90;26.40;;;;;;5047145;28;20437;-45
2022/09/25 06:50:53;;;;;;;57.27;28.00;;;12.90;24.00;;;;;;5041814;28;20485;-46
2022/09/25 06:53:20;;;;;;;60.20;28.30;;;13.00;23.10;;;;;;5044534;28;20452;-45
2022/09/25 06:55:46;;;;;;;53.73;26.40;;;13.00;22.90;;;;;;5049427;28;20522;-45
2022/09/25 06:58:18;;;;;;;64.97;28.70;;;13.00;20.70;;;;;;5046576;28;20432;-45
2022/09/25 07:00:47;;;;;;;67.50;29.03;;;13.10;17.70;;;;;;5043625;28;20785;-45
2022/09/25 07:06:02;;;;;;;59.40;29.47;;;13.00;1.00;;;;;;5040526;28;20431;-46
2022/09/25 07:08:28;;;;;;;63.67;27.27;;;13.00;1.00;;;;;;5047164;28;20501;-47
2022/09/25 07:10:55;;;;;;;63.43;28.80;;;13.00;1.00;;;;;;5044861;28;20533;-45
2022/09/25 07:13:27;;;;;;;54.53;26.20;;;13.00;1.00;;;;;;5043277;28;20431;-45
2022/09/25 07:16:02;;;;;;;69.40;30.17;;;13.00;1.00;;;;;;5046609;28;20475;-45
2022/09/25 07:18:28;;;;;;;41.50;20.57;;;12.90;1.00;;;;;;5042755;28;20494;-46
2022/09/25 07:21:00;;;;;;;25.13;13.00;;;12.90;1.00;;;;;;5044470;28;20432;-46
2022/09/25 07:23:27;;;;;;;15.47;10.40;;;12.90;1.00;;;;;;5047019;28;20809;-46
2022/09/25 07:25:53;;;;;;;10.80;7.70;;;12.80;1.00;;;;;;5045884;28;20476;-45
2022/09/25 07:28:19;;;;;;;10.33;7.23;;;12.80;1.00;;;;;;5043669;28;20440;-46
2022/09/25 07:30:45;;;;;;;7.87;6.40;;;12.80;1.00;;;;;;5044001;28;20222;-46
2022/09/25 07:33:11;;;;;;;10.10;7.63;;;12.80;1.00;;;;;;5044019;28;20455;-46
2022/09/25 07:35:37;;;;;;;12.17;8.53;;;12.70;1.00;;;;;;5042135;28;20464;-46
2022/09/25 07:38:03;;;;;;;9.70;7.70;;;12.70;1.00;;;;;;5039768;28;20197;-46
2022/09/25 07:40:30;;;;;;;11.63;8.37;;;12.70;1.00;;;;;;5042431;28;20440;-45
2022/09/25 07:43:03;;;;;;;11.10;8.73;;;12.70;1.00;;;;;;5043787;28;20447;-45
2022/09/25 07:45:30;;;;;;;10.90;8.40;;;12.60;1.00;;;;;;5049504;28;20429;-45
2022/09/25 07:47:57;;;;;;;11.20;8.40;;;12.60;1.00;;;;;;5044825;28;20452;-45
2022/09/25 07:50:22;;;;;;;11.13;8.03;;;12.60;1.00;;;;;;5043341;28;20445;-46
2022/09/25 07:52:48;;;;;;;10.37;8.03;;;12.60;1.00;;;;;;5045450;28;20445;-45
2022/09/25 07:55:14;;;;;;;15.60;8.47;;;12.60;1.00;;;;;;5044087;28;20660;-45
2022/09/25 07:57:40;;;;;;;10.73;8.67;;;12.60;1.00;;;;;;5044188;28;20220;-45
2022/09/25 08:00:07;;;;;;;12.33;9.13;;;12.60;1.00;;;;;;5046703;28;20195;-45
2022/09/25 08:02:34;;;;;;;15.20;10.57;;;12.60;1.00;;;;;;5046601;28;20440;-46
2022/09/25 08:05:00;;;;;;;15.50;10.60;;;12.60;1.00;;;;;;5045609;28;20432;-45
2022/09/25 08:07:27;;;;;;;14.77;10.73;;;12.60;1.00;;;;;;5045931;28;20432;-46
2022/09/25 08:09:53;;;;;;;15.63;10.03;;;12.60;1.00;;;;;;5049398;28;20424;-45
2022/09/25 08:12:23;;;;;;;13.07;9.20;;;12.60;1.00;;;;;;5049108;28;20428;-45
2022/09/25 08:14:48;;;;;;;14.60;10.70;;;12.60;1.00;;;;;;5049696;28;20546;-45
2022/09/25 08:17:14;;;;;;;13.97;9.80;;;12.60;1.00;;;;;;5045990;28;21122;-46
2022/09/25 08:19:40;;;;;;;14.80;10.90;;;12.60;1.00;;;;;;5049775;28;20210;-54
2022/09/25 08:22:05;;;;;;;14.07;10.50;;;12.60;1.00;;;;;;5050054;28;20183;-46
2022/09/25 08:24:31;;;;;;;17.67;11.13;;;12.60;1.00;;;;;;5053107;28;20197;-44
2022/09/25 08:26:56;;;;;;;16.20;10.40;;;12.70;1.00;;;;;;5053510;28;20875;-45
2022/09/25 08:29:23;;;;;;;19.07;11.77;;;12.70;1.00;;;;;;5052580;28;20564;-46
2022/09/25 08:31:49;;;;;;;18.43;11.80;;;12.70;1.00;;;;;;5053074;28;20178;-45
2022/09/25 08:34:15;;;;;;;17.20;11.40;;;12.80;1.00;;;;;;5049059;28;20788;-46
2022/09/25 08:36:41;;;;;;;14.27;9.47;;;12.80;1.00;;;;;;5053240;28;20189;-45
2022/09/25 08:39:07;;;;;;;13.30;9.53;;;12.80;1.00;;;;;;5048984;28;20437;-45
2022/09/25 08:41:46;;;;;;;17.90;11.37;;;12.80;1.00;;;;;;5045480;28;20277;-48
2022/09/25 08:44:42;;;;;;;19.70;11.60;;;12.80;1.00;;;;;;5040456;28;20187;-48
2022/09/25 08:50:10;;;;;;;14.67;10.60;;;12.70;1.00;;;;;;5053346;28;20563;-47
2022/09/25 08:52:39;;;;;;;13.80;10.77;;;12.70;1.00;;;;;;5050473;28;20462;-47
2022/09/25 08:55:17;;;;;;;14.47;10.83;;;12.70;1.00;;;;;;5047075;28;20481;-48
2022/09/25 08:57:44;;;;;;;18.90;11.47;;;12.60;1.00;;;;;;5041186;28;20441;-47
2022/09/25 09:00:19;;;;;;;12.67;9.40;;;12.60;1.00;;;;;;5046496;28;20898;-48
2022/09/25 09:02:57;;;;;;;14.57;10.30;;;12.70;1.00;;;;;;5044795;28;20417;-47
2022/09/25 09:05:30;;;;;;;15.03;10.93;;;12.70;1.00;;;;;;5050319;28;20514;-47
2022/09/25 09:08:14;;;;;;;12.77;9.73;;;12.60;1.00;;;;;;5044184;28;20436;-48
2022/09/25 09:10:43;;;;;;;13.73;9.90;;;12.60;1.00;;;;;;5051226;28;20511;-48
2022/09/25 09:13:29;;;;;;;14.43;10.47;;;12.70;1.00;;;;;;5052400;28;20530;-47
2022/09/25 09:16:02;;;;;;;15.30;10.50;;;12.70;1.00;;;;;;5046557;28;20521;-47
2022/09/25 09:18:29;;;;;;;14.53;10.37;;;12.70;1.00;;;;;;5052337;28;20424;-47
2022/09/25 09:21:00;;;;;;;18.83;12.03;;;12.70;1.00;;;;;;5043650;28;20440;-47
2022/09/25 09:23:33;;;;;;;16.90;12.30;;;12.70;1.00;;;;;;5039581;28;20458;-48
2022/09/25 09:26:27;;;;;;;19.17;13.37;;;12.70;1.00;;;;;;5036625;28;20519;-46
2022/09/25 09:29:32;;;;;;;18.50;13.27;;;12.80;1.00;;;;;;5040973;28;20467;-48
2022/09/25 09:32:29;;;;;;;22.73;12.70;;;12.90;1.00;;;;;;5051940;28;20431;-47
2022/09/25 09:35:40;;;;;;;18.30;13.17;;;12.90;1.00;;;;;;5042979;28;20523;-47
2022/09/25 09:38:43;;;;;;;22.77;14.17;;;12.80;1.00;;;;;;5051267;28;20431;-48
2022/09/25 09:41:27;;;;;;;24.63;12.30;;;12.80;1.00;;;;;;5043828;28;20428;-47
2022/09/25 09:44:01;;;;;;;20.20;13.00;;;12.80;1.00;;;;;;5051158;28;20956;-48
2022/09/25 09:46:47;;;;;;;18.17;13.20;;;12.80;1.00;;;;;;5039085;28;20532;-48
2022/09/25 09:49:13;;;;;;;25.80;16.87;;;12.80;1.00;;;;;;5041002;28;21032;-49
2022/09/25 09:52:03;;;;;;;21.97;13.43;;;12.80;1.00;;;;;;5039424;28;20433;-48
2022/09/25 09:54:45;;;;;;;20.17;13.07;;;12.80;1.00;;;;;;5043878;28;20198;-48
2022/09/25 09:57:22;;;;;;;21.10;14.03;;;12.80;1.00;;;;;;5040476;28;20926;-48
2022/09/25 10:00:04;;;;;;;21.67;13.20;;;12.80;1.00;;;;;;5049208;28;20436;-49
2022/09/25 10:02:39;;;;;;;21.93;13.77;;;12.70;1.00;;;;;;5045601;28;20482;-49
2022/09/25 10:05:15;;;;;;;23.40;14.97;;;12.70;1.00;;;;;;5047973;28;20486;-49
2022/09/25 10:07:42;;;;;;;24.50;14.40;;;12.70;1.00;;;;;;5045053;28;20436;-49
2022/09/25 10:10:13;;;;;;;25.83;14.27;;;12.80;1.00;;;;;;5048040;28;20445;-48
2022/09/25 10:12:50;;;;;;;24.00;14.50;;;12.90;1.00;;;;;;5047720;28;20490;-48
2022/09/25 10:15:43;;;;;;;24.47;13.90;;;12.80;1.00;;;;;;5049806;28;20456;-48
2022/09/25 10:18:10;;;;;;;36.33;14.83;;;12.90;1.00;;;;;;5047867;28;20482;-48
2022/09/25 10:20:43;;;;;;;24.87;14.67;;;12.90;1.00;;;;;;5048453;28;20761;-48
2022/09/25 10:23:34;;;;;;;22.87;15.20;;;13.00;1.00;;;;;;5052787;28;20575;-48
2022/09/25 10:25:59;;;;;;;24.60;15.83;;;13.00;1.00;;;;;;5051053;28;20484;-48
2022/09/25 10:28:29;;;;;;;21.60;15.10;;;13.00;1.00;;;;;;5049088;28;20472;-47
2022/09/25 10:30:56;;;;;;;23.40;16.60;;;13.00;1.00;;;;;;5045959;28;20213;-48
2022/09/25 10:33:24;;;;;;;28.87;15.50;;;13.00;1.00;;;;;;5048546;28;20448;-48
2022/09/25 10:35:53;;;;;;;24.60;15.67;;;13.00;1.00;;;;;;5047445;28;20571;-48
2022/09/25 10:38:46;;;;;;;24.00;14.03;;;13.10;1.00;;;;;;5045470;28;20440;-48
2022/09/25 10:41:18;;;;;;;18.90;13.23;;;13.10;1.00;;;;;;5046885;28;20941;-48
2022/09/25 10:43:59;;;;;;;18.47;13.80;;;13.10;1.00;;;;;;5045710;28;20930;-48
2022/09/25 10:52:07;;;;;;;19.93;12.20;;;13.10;1.00;;;;;;5046619;28;20519;-48
2022/09/25 10:54:34;;;;;;;25.17;12.10;;;13.20;1.00;;;;;;5049545;28;20444;-48
2022/09/25 10:57:01;;;;;;;16.40;11.30;;;13.20;1.00;;;;;;5049548;28;20559;-47
2022/09/25 10:59:27;;;;;;;17.63;11.33;;;13.20;1.00;;;;;;5049350;28;20448;-48
2022/09/25 11:01:54;;;;;;;19.80;10.87;;;13.30;1.00;;;;;;5046374;28;20446;-48
2022/09/25 11:04:33;;;;;;;23.47;10.23;;;13.30;1.00;;;;;;5045754;28;20455;-48
2022/09/25 11:07:06;;;;;;;18.27;10.00;;;13.30;1.00;;;;;;5043346;28;20437;-48
2022/09/25 11:09:34;;;;;;;12.17;9.83;;;13.30;1.00;;;;;;5047207;28;20448;-48
2022/09/25 11:12:11;;;;;;;15.77;10.50;;;13.30;1.00;;;;;;5047838;28;21315;-48
2022/09/25 11:14:39;;;;;;;19.63;11.13;;;13.30;1.00;;;;;;5047466;28;20441;-48
2022/09/25 11:17:05;;;;;;;16.93;10.57;;;13.20;99.90;;;;;;5052962;28;20441;-48
2022/09/25 11:19:33;;;;;;;13.83;10.40;;;13.10;99.90;;;;;;5048589;28;20433;-48
2022/09/25 11:22:30;;;;;;;17.97;11.03;;;13.20;99.90;;;;;;5047737;28;20798;-48
2022/09/25 11:25:10;;;;;;;17.80;10.37;;;13.20;1.00;;;;;;5048176;28;20487;-54
2022/09/25 11:27:45;;;;;;;17.70;11.57;;;13.20;1.00;;;;;;5043930;28;20461;-48
2022/09/25 11:30:17;;;;;;;13.50;9.27;;;13.30;1.00;;;;;;5043029;28;20471;-48
2022/09/25 11:33:23;;;;;;;15.33;11.10;;;13.20;1.00;;;;;;5047166;28;20810;-50
2022/09/25 11:36:10;;;;;;;20.97;12.00;;;13.20;99.90;;;;;;5044335;28;20564;-48
2022/09/25 11:42:00;;;;;;;19.40;11.27;;;13.20;99.90;;;;;;5049496;28;20978;-48
2022/09/25 11:44:41;;;;;;;16.97;10.80;;;13.20;99.90;;;;;;5046439;28;20444;-48
2022/09/25 11:47:30;;;;;;;14.60;10.60;;;13.30;99.90;;;;;;5045382;28;20440;-48
2022/09/25 11:49:57;;;;;;;21.23;10.83;;;13.40;99.90;;;;;;5047261;28;20440;-48
2022/09/25 11:52:41;;;;;;;15.83;10.17;;;13.40;99.90;;;;;;5047257;28;20773;-48
2022/09/25 11:55:38;;;;;;;13.90;9.57;;;13.40;99.90;;;;;;5046092;28;20563;-48
2022/09/25 11:58:22;;;;;;;16.23;10.47;;;13.40;99.90;;;;;;5051065;28;20474;-48
2022/09/25 12:01:09;;;;;;;18.83;9.50;;;13.40;99.90;;;;;;5048856;28;20448;-47
2022/09/25 12:04:02;;;;;;;19.43;9.70;;;13.30;99.90;;;;;;5052172;28;20519;-48
2022/09/25 12:07:10;;;;;;;14.90;8.63;;;13.30;99.90;;;;;;5053944;28;20444;-48
2022/09/25 12:09:50;;;;;;;18.23;10.10;;;13.30;99.90;;;;;;5034222;28;20490;-50
2022/09/25 12:12:25;;;;;;;18.40;11.73;;;13.30;99.90;;;;;;5049040;28;20543;-48
2022/09/25 12:15:08;;;;;;;14.10;9.97;;;13.30;99.90;;;;;;5054347;28;20824;-48
2022/09/25 12:18:10;;;;;;;15.50;10.80;;;13.40;99.90;;;;;;5053548;28;20448;-48
2022/09/25 12:20:48;;;;;;;12.43;9.27;;;13.40;99.90;;;;;;5049137;28;20471;-48
2022/09/25 12:23:32;;;;;;;11.87;8.00;;;13.40;99.90;;;;;;5050843;28;20899;-48
2022/09/25 12:26:11;;;;;;;12.67;7.47;;;13.40;99.90;;;;;;5051885;28;20488;-48
2022/09/25 12:28:52;;;;;;;12.70;7.77;;;13.30;99.90;;;;;;5050203;28;20558;-48
2022/09/25 12:31:30;;;;;;;13.60;7.67;;;13.30;99.90;;;;;;5049731;28;20451;-48
2022/09/25 12:34:09;;;;;;;12.17;7.80;;;13.30;99.90;;;;;;5053226;28;20473;-48
2022/09/25 12:36:59;;;;;;;13.60;8.00;;;13.30;99.90;;;;;;5053524;28;20509;-48
2022/09/25 12:39:31;;;;;;;9.80;7.90;;;13.30;99.90;;;;;;5030266;28;20436;-48
2022/09/25 12:42:47;;;;;;;10.60;8.70;;;13.30;99.90;;;;;;5046500;28;20461;-48
2022/09/25 12:45:26;;;;;;;11.63;8.30;;;13.30;99.90;;;;;;5033825;28;20450;-55
2022/09/25 12:48:25;;;;;;;10.77;8.10;;;13.40;99.90;;;;;;5053711;28;20425;-48
2022/09/25 12:51:13;;;;;;;15.03;8.47;;;13.40;99.90;;;;;;5049060;28;20452;-48
2022/09/25 12:53:55;;;;;;;10.03;7.67;;;13.50;99.90;;;;;;5049497;28;20547;-53
2022/09/25 12:56:49;;;;;;;10.43;6.97;;;13.60;99.90;;;;;;5051800;28;20968;-48
2022/09/25 12:59:39;;;;;;;8.43;7.37;;;13.70;99.90;;;;;;5047841;28;20494;-48
2022/09/25 13:02:24;;;;;;;8.13;6.07;;;13.80;99.90;;;;;;5046724;28;20491;-48
2022/09/25 13:05:06;;;;;;;6.37;5.57;;;13.70;99.90;;;;;;5053585;28;20462;-48
2022/09/25 13:07:48;;;;;;;8.20;5.43;;;13.70;18.50;;;;;;5051155;28;20451;-48
2022/09/25 13:10:29;;;;;;;9.83;4.87;;;13.60;1.90;;;;;;5049541;28;20450;-48
2022/09/25 13:12:59;;;;;;;10.13;5.43;;;13.70;30.30;;;;;;5051171;28;20424;-47
2022/09/25 13:15:29;;;;;;;7.80;5.33;;;13.70;10.50;;;;;;5050584;28;20511;-48
2022/09/25 13:17:57;;;;;;;6.33;5.10;;;13.80;30.40;;;;;;5051592;28;20444;-48
2022/09/25 13:20:26;;;;;;;6.50;4.90;;;13.80;1.00;;;;;;5048514;28;20439;-48
2022/09/25 13:23:04;;;;;;;12.40;5.87;;;13.90;1.00;;;;;;5051672;28;20428;-48
2022/09/25 13:25:39;;;;;;;4.97;4.43;;;14.00;1.00;;;;;;5043850;28;20574;-48